sensor_id;sensor_type;location;lat;lon;timestamp;pressure;altitude;pressure_sealevel;temperature;humidity
14882;BME280;7533;51.278;12.588;2023-02-02T00:04:15;99803.44;;;21.89;53.26
14882;BME280;7533;51.278;12.588;2023-02-02T00:09:19;99808.69;;;21.90;53.16
14882;BME280;7533;51.278;12.588;2023-02-02T00:14:24;99808.69;;;21.90;53.19
14882;BME280;7533;51.278;12.588;2023-02-02T00:19:28;99816.66;;;21.92;53.12
14882;BME280;7533;51.278;12.588;2023-02-02T00:24:31;99813.97;;;21.92;53.29
14882;BME280;7533;51.278;12.588;2023-02-02T00:29:36;99823.88;;;21.91;53.30
14882;BME280;7533;51.278;12.588;2023-02-02T00:34:40;99823.75;;;21.93;53.35
14882;BME280;7533;51.278;12.588;2023-02-02T00:39:43;99821.69;;;21.97;53.32
14882;BME280;7533;51.278;12.588;2023-02-02T00:44:47;99823.53;;;21.96;53.22
14882;BME280;7533;51.278;12.588;2023-02-02T00:50:10;99825.47;;;21.94;53.19
14882;BME280;7533;51.278;12.588;2023-02-02T00:55:14;99821.91;;;21.93;53.28
14882;BME280;7533;51.278;12.588;2023-02-02T01:00:21;99821.91;;;21.93;53.27
14882;BME280;7533;51.278;12.588;2023-02-02T01:05:24;99811.28;;;21.92;53.21
14882;BME280;7533;51.278;12.588;2023-02-02T01:10:27;99809.28;;;21.94;52.99
14882;BME280;7533;51.278;12.588;2023-02-02T01:15:31;99814.09;;;21.90;52.96
14882;BME280;7533;51.278;12.588;2023-02-02T01:20:34;99805.88;;;21.92;52.93
14882;BME280;7533;51.278;12.588;2023-02-02T01:25:37;99806.13;;;21.89;52.83
14882;BME280;7533;51.278;12.588;2023-02-02T01:30:41;99800.50;;;21.92;52.84
14882;BME280;7533;51.278;12.588;2023-02-02T01:35:45;99800.47;;;21.81;52.87
14882;BME280;7533;51.278;12.588;2023-02-02T01:40:51;99807.34;;;21.85;52.64
14882;BME280;7533;51.278;12.588;2023-02-02T01:45:57;99806.72;;;21.81;52.73
14882;BME280;7533;51.278;12.588;2023-02-02T01:51:02;99796.81;;;21.82;52.60
14882;BME280;7533;51.278;12.588;2023-02-02T01:56:07;99797.66;;;21.82;52.27
14882;BME280;7533;51.278;12.588;2023-02-02T02:01:13;99802.19;;;21.82;52.34
14882;BME280;7533;51.278;12.588;2023-02-02T02:06:18;99806.97;;;21.78;52.51
14882;BME280;7533;51.278;12.588;2023-02-02T02:11:22;99819.09;;;21.73;52.51
14882;BME280;7533;51.278;12.588;2023-02-02T02:16:34;99824.31;;;21.63;52.76
14882;BME280;7533;51.278;12.588;2023-02-02T02:21:52;99823.09;;;21.56;52.76
14882;BME280;7533;51.278;12.588;2023-02-02T02:27:37;99820.34;;;21.45;53.15
14882;BME280;7533;51.278;12.588;2023-02-02T02:32:47;99818.00;;;21.40;52.87
14882;BME280;7533;51.278;12.588;2023-02-02T02:37:56;99822.75;;;21.36;52.99
14882;BME280;7533;51.278;12.588;2023-02-02T02:43:05;99834.63;;;21.34;52.97
14882;BME280;7533;51.278;12.588;2023-02-02T02:48:11;99826.22;;;21.26;52.89
14882;BME280;7533;51.278;12.588;2023-02-02T02:53:17;99828.34;;;21.09;53.20
14882;BME280;7533;51.278;12.588;2023-02-02T02:58:29;99829.59;;;21.05;53.41
14882;BME280;7533;51.278;12.588;2023-02-02T03:03:46;99842.00;;;20.95;53.73
14882;BME280;7533;51.278;12.588;2023-02-02T03:08:58;99836.50;;;20.97;53.79
14882;BME280;7533;51.278;12.588;2023-02-02T03:14:02;99845.53;;;20.96;53.81
14882;BME280;7533;51.278;12.588;2023-02-02T03:19:11;99852.63;;;20.97;53.76
14882;BME280;7533;51.278;12.588;2023-02-02T03:24:14;99841.03;;;20.96;54.02
14882;BME280;7533;51.278;12.588;2023-02-02T03:29:17;99843.44;;;20.88;54.15
14882;BME280;7533;51.278;12.588;2023-02-02T03:34:21;99854.34;;;20.98;53.95
14882;BME280;7533;51.278;12.588;2023-02-02T03:39:24;99849.94;;;20.97;53.77
14882;BME280;7533;51.278;12.588;2023-02-02T03:44:27;99859.72;;;20.98;54.32
14882;BME280;7533;51.278;12.588;2023-02-02T03:49:31;99863.19;;;21.00;54.41
14882;BME280;7533;51.278;12.588;2023-02-02T03:54:34;99870.22;;;20.90;54.46
14882;BME280;7533;51.278;12.588;2023-02-02T03:59:37;99877.44;;;20.89;54.52
14882;BME280;7533;51.278;12.588;2023-02-02T04:04:41;99879.13;;;20.90;54.41
14882;BME280;7533;51.278;12.588;2023-02-02T04:09:44;99881.94;;;20.89;54.25
14882;BME280;7533;51.278;12.588;2023-02-02T04:14:46;99888.19;;;20.89;54.35
14882;BME280;7533;51.278;12.588;2023-02-02T04:19:50;99899.69;;;20.91;54.38
14882;BME280;7533;51.278;12.588;2023-02-02T04:24:58;99908.16;;;20.98;54.23
14882;BME280;7533;51.278;12.588;2023-02-02T04:30:01;99917.19;;;20.97;54.37
14882;BME280;7533;51.278;12.588;2023-02-02T04:35:06;99926.59;;;21.15;53.99
14882;BME280;7533;51.278;12.588;2023-02-02T04:40:10;99931.66;;;21.20;53.77
14882;BME280;7533;51.278;12.588;2023-02-02T04:45:14;99932.25;;;21.12;54.16
14882;BME280;7533;51.278;12.588;2023-02-02T04:50:18;99937.22;;;20.93;54.52
14882;BME280;7533;51.278;12.588;2023-02-02T04:55:22;99958.47;;;20.72;55.03
14882;BME280;7533;51.278;12.588;2023-02-02T05:00:26;99967.63;;;20.56;55.41
14882;BME280;7533;51.278;12.588;2023-02-02T05:05:30;99974.34;;;20.37;55.90
14882;BME280;7533;51.278;12.588;2023-02-02T05:10:32;99984.78;;;20.16;56.57
14882;BME280;7533;51.278;12.588;2023-02-02T05:15:35;99985.31;;;20.21;56.38
14882;BME280;7533;51.278;12.588;2023-02-02T05:20:39;99997.78;;;20.09;56.67
14882;BME280;7533;51.278;12.588;2023-02-02T05:25:42;99992.03;;;20.01;56.96
14882;BME280;7533;51.278;12.588;2023-02-02T05:30:45;99999.84;;;19.91;57.22
14882;BME280;7533;51.278;12.588;2023-02-02T05:35:49;100004.78;;;19.85;57.40
14882;BME280;7533;51.278;12.588;2023-02-02T05:40:52;100015.06;;;19.78;57.39
14882;BME280;7533;51.278;12.588;2023-02-02T05:45:55;100024.41;;;19.72;57.55
14882;BME280;7533;51.278;12.588;2023-02-02T05:51:02;100022.53;;;19.60;57.72
14882;BME280;7533;51.278;12.588;2023-02-02T05:56:07;100035.34;;;19.55;58.10
14882;BME280;7533;51.278;12.588;2023-02-02T06:01:10;100036.63;;;19.49;58.30
14882;BME280;7533;51.278;12.588;2023-02-02T06:06:14;100050.31;;;19.45;58.27
14882;BME280;7533;51.278;12.588;2023-02-02T06:11:17;100056.09;;;19.39;58.61
14882;BME280;7533;51.278;12.588;2023-02-02T06:16:20;100063.56;;;19.34;58.70
14882;BME280;7533;51.278;12.588;2023-02-02T06:21:24;100064.94;;;19.26;58.93
14882;BME280;7533;51.278;12.588;2023-02-02T06:26:28;100075.78;;;19.25;59.00
14882;BME280;7533;51.278;12.588;2023-02-02T06:31:30;100071.53;;;19.21;59.08
14882;BME280;7533;51.278;12.588;2023-02-02T06:36:35;100072.50;;;19.20;58.97
14882;BME280;7533;51.278;12.588;2023-02-02T06:41:38;100074.69;;;19.13;59.19
14882;BME280;7533;51.278;12.588;2023-02-02T06:46:42;100070.69;;;19.06;59.32
14882;BME280;7533;51.278;12.588;2023-02-02T06:51:47;100077.88;;;19.06;59.40
14882;BME280;7533;51.278;12.588;2023-02-02T06:56:49;100083.44;;;19.02;59.61
14882;BME280;7533;51.278;12.588;2023-02-02T07:01:52;100091.84;;;18.96;59.86
14882;BME280;7533;51.278;12.588;2023-02-02T07:06:56;100098.00;;;18.98;59.89
14882;BME280;7533;51.278;12.588;2023-02-02T07:11:59;100108.25;;;18.92;59.81
14882;BME280;7533;51.278;12.588;2023-02-02T07:17:02;100109.38;;;18.88;60.05
14882;BME280;7533;51.278;12.588;2023-02-02T07:22:06;100113.03;;;18.87;60.02
14882;BME280;7533;51.278;12.588;2023-02-02T07:27:09;100112.22;;;18.85;60.04
14882;BME280;7533;51.278;12.588;2023-02-02T07:32:12;100123.16;;;18.82;60.13
14882;BME280;7533;51.278;12.588;2023-02-02T07:37:17;100129.38;;;18.82;60.00
14882;BME280;7533;51.278;12.588;2023-02-02T07:42:20;100134.00;;;18.80;60.21
14882;BME280;7533;51.278;12.588;2023-02-02T07:47:23;100135.00;;;18.77;60.21
14882;BME280;7533;51.278;12.588;2023-02-02T07:52:29;100146.88;;;18.73;60.25
14882;BME280;7533;51.278;12.588;2023-02-02T07:57:32;100136.25;;;18.72;60.26
14882;BME280;7533;51.278;12.588;2023-02-02T08:02:34;100139.63;;;18.75;60.22
14882;BME280;7533;51.278;12.588;2023-02-02T08:07:39;100140.91;;;18.98;58.93
14882;BME280;7533;51.278;12.588;2023-02-02T08:12:41;100150.41;;;19.33;56.98
14882;BME280;7533;51.278;12.588;2023-02-02T08:17:45;100157.78;;;19.58;55.35
14882;BME280;7533;51.278;12.588;2023-02-02T08:22:51;100175.97;;;19.52;50.80
14882;BME280;7533;51.278;12.588;2023-02-02T08:27:55;100196.81;;;18.29;46.67
14882;BME280;7533;51.278;12.588;2023-02-02T08:32:59;100190.41;;;17.35;47.10
14882;BME280;7533;51.278;12.588;2023-02-02T08:38:03;100192.47;;;17.63;48.59
14882;BME280;7533;51.278;12.588;2023-02-02T08:43:08;100188.63;;;18.77;48.47
14882;BME280;7533;51.278;12.588;2023-02-02T08:48:11;100193.81;;;19.25;48.74
14882;BME280;7533;51.278;12.588;2023-02-02T08:53:16;100193.53;;;19.44;48.81
14882;BME280;7533;51.278;12.588;2023-02-02T08:58:19;100196.94;;;19.62;49.25
14882;BME280;7533;51.278;12.588;2023-02-02T09:03:21;100210.25;;;19.77;49.36
14882;BME280;7533;51.278;12.588;2023-02-02T09:08:26;100203.34;;;19.88;49.78
14882;BME280;7533;51.278;12.588;2023-02-02T09:13:29;100207.47;;;19.93;50.25
14882;BME280;7533;51.278;12.588;2023-02-02T09:18:31;100212.22;;;20.02;50.48
14882;BME280;7533;51.278;12.588;2023-02-02T09:23:38;100216.16;;;20.11;50.82
14882;BME280;7533;51.278;12.588;2023-02-02T09:28:43;100231.59;;;20.22;51.35
14882;BME280;7533;51.278;12.588;2023-02-02T09:33:46;100227.75;;;20.26;51.97
14882;BME280;7533;51.278;12.588;2023-02-02T09:38:51;100232.59;;;20.33;52.36
14882;BME280;7533;51.278;12.588;2023-02-02T09:44:02;100238.53;;;20.39;52.55
14882;BME280;7533;51.278;12.588;2023-02-02T09:49:11;100248.91;;;20.45;52.51
14882;BME280;7533;51.278;12.588;2023-02-02T09:54:20;100247.19;;;20.44;52.89
14882;BME280;7533;51.278;12.588;2023-02-02T09:59:28;100241.69;;;20.45;53.17
14882;BME280;7533;51.278;12.588;2023-02-02T10:04:35;100242.47;;;20.47;53.09
14882;BME280;7533;51.278;12.588;2023-02-02T10:09:45;100253.03;;;20.50;53.63
14882;BME280;7533;51.278;12.588;2023-02-02T10:14:53;100260.81;;;20.55;53.54
14882;BME280;7533;51.278;12.588;2023-02-02T10:20:03;100265.09;;;20.57;53.65
14882;BME280;7533;51.278;12.588;2023-02-02T10:25:13;100259.53;;;20.60;53.75
14882;BME280;7533;51.278;12.588;2023-02-02T10:30:19;100273.56;;;20.66;53.99
14882;BME280;7533;51.278;12.588;2023-02-02T10:35:33;100261.72;;;20.68;54.05
14882;BME280;7533;51.278;12.588;2023-02-02T10:40:48;100254.31;;;20.72;54.24
14882;BME280;7533;51.278;12.588;2023-02-02T10:45:56;100265.06;;;20.72;54.13
14882;BME280;7533;51.278;12.588;2023-02-02T10:51:06;100266.91;;;20.71;54.44
14882;BME280;7533;51.278;12.588;2023-02-02T10:56:17;100274.13;;;20.71;54.70
14882;BME280;7533;51.278;12.588;2023-02-02T11:01:22;100277.75;;;20.70;54.57
14882;BME280;7533;51.278;12.588;2023-02-02T11:06:25;100282.19;;;20.71;54.74
14882;BME280;7533;51.278;12.588;2023-02-02T11:11:49;100275.91;;;20.70;54.64
14882;BME280;7533;51.278;12.588;2023-02-02T11:17:00;100287.56;;;20.71;54.71
14882;BME280;7533;51.278;12.588;2023-02-02T11:22:03;100293.94;;;20.82;54.75
14882;BME280;7533;51.278;12.588;2023-02-02T11:27:12;100310.16;;;20.81;54.85
14882;BME280;7533;51.278;12.588;2023-02-02T11:32:25;100308.56;;;20.78;54.76
14882;BME280;7533;51.278;12.588;2023-02-02T11:37:30;100326.41;;;20.79;54.81
14882;BME280;7533;51.278;12.588;2023-02-02T11:42:35;100322.00;;;20.78;54.71
14882;BME280;7533;51.278;12.588;2023-02-02T11:47:38;100317.50;;;20.79;54.56
14882;BME280;7533;51.278;12.588;2023-02-02T11:52:44;100321.09;;;20.92;54.52
14882;BME280;7533;51.278;12.588;2023-02-02T11:58:10;100321.53;;;20.99;54.80
14882;BME280;7533;51.278;12.588;2023-02-02T12:03:33;100325.50;;;20.93;54.73
14882;BME280;7533;51.278;12.588;2023-02-02T12:08:37;100326.69;;;20.89;54.45
14882;BME280;7533;51.278;12.588;2023-02-02T12:13:51;100334.78;;;20.75;55.49
14882;BME280;7533;51.278;12.588;2023-02-02T12:19:15;100344.78;;;20.73;55.13
14882;BME280;7533;51.278;12.588;2023-02-02T12:24:29;100357.78;;;20.66;56.16
14882;BME280;7533;51.278;12.588;2023-02-02T12:30:02;100365.00;;;20.66;55.28
14882;BME280;7533;51.278;12.588;2023-02-02T12:35:31;100373.13;;;20.64;55.10
14882;BME280;7533;51.278;12.588;2023-02-02T12:40:55;100358.81;;;20.78;54.63
14882;BME280;7533;51.278;12.588;2023-02-02T12:46:26;100358.56;;;20.95;54.52
14882;BME280;7533;51.278;12.588;2023-02-02T12:51:48;100362.09;;;20.96;54.88
14882;BME280;7533;51.278;12.588;2023-02-02T12:57:01;100378.03;;;20.99;55.21
14882;BME280;7533;51.278;12.588;2023-02-02T13:02:17;100371.03;;;20.96;55.16
14882;BME280;7533;51.278;12.588;2023-02-02T13:07:38;100388.63;;;21.02;54.99
14882;BME280;7533;51.278;12.588;2023-02-02T13:12:45;100389.06;;;21.08;55.54
14882;BME280;7533;51.278;12.588;2023-02-02T13:17:53;100402.34;;;21.11;55.83
14882;BME280;7533;51.278;12.588;2023-02-02T13:23:00;100411.91;;;21.16;55.80
14882;BME280;7533;51.278;12.588;2023-02-02T13:28:05;100409.75;;;21.08;56.02
14882;BME280;7533;51.278;12.588;2023-02-02T13:33:20;100401.56;;;21.09;56.16
14882;BME280;7533;51.278;12.588;2023-02-02T13:38:26;100405.09;;;21.10;56.15
14882;BME280;7533;51.278;12.588;2023-02-02T13:43:38;100422.91;;;21.12;56.26
14882;BME280;7533;51.278;12.588;2023-02-02T13:48:55;100423.41;;;21.05;56.39
14882;BME280;7533;51.278;12.588;2023-02-02T13:54:18;100438.47;;;21.07;56.52
14882;BME280;7533;51.278;12.588;2023-02-02T13:59:42;100450.50;;;21.02;56.43
14882;BME280;7533;51.278;12.588;2023-02-02T14:04:57;100454.16;;;21.01;56.74
14882;BME280;7533;51.278;12.588;2023-02-02T14:10:02;100454.72;;;21.06;56.81
14882;BME280;7533;51.278;12.588;2023-02-02T14:15:07;100464.31;;;21.10;56.95
14882;BME280;7533;51.278;12.588;2023-02-02T14:20:40;100467.69;;;21.13;57.08
14882;BME280;7533;51.278;12.588;2023-02-02T14:26:03;100477.28;;;21.18;57.52
14882;BME280;7533;51.278;12.588;2023-02-02T14:31:28;100477.13;;;21.06;57.76
14882;BME280;7533;51.278;12.588;2023-02-02T14:36:36;100490.38;;;21.09;58.25
14882;BME280;7533;51.278;12.588;2023-02-02T14:41:55;100491.34;;;21.08;58.13
14882;BME280;7533;51.278;12.588;2023-02-02T14:47:45;100510.16;;;21.08;58.09
14882;BME280;7533;51.278;12.588;2023-02-02T14:52:58;100510.75;;;21.13;58.31
14882;BME280;7533;51.278;12.588;2023-02-02T14:58:05;100517.56;;;21.19;58.46
14882;BME280;7533;51.278;12.588;2023-02-02T15:03:31;100515.16;;;21.14;58.29
14882;BME280;7533;51.278;12.588;2023-02-02T15:08:37;100537.78;;;21.12;58.71
14882;BME280;7533;51.278;12.588;2023-02-02T15:13:41;100541.44;;;21.11;58.77
14882;BME280;7533;51.278;12.588;2023-02-02T15:18:54;100559.41;;;21.10;59.09
14882;BME280;7533;51.278;12.588;2023-02-02T15:24:03;100561.41;;;21.07;59.05
14882;BME280;7533;51.278;12.588;2023-02-02T15:29:16;100573.53;;;21.00;59.26
14882;BME280;7533;51.278;12.588;2023-02-02T15:34:25;100585.06;;;21.02;59.30
14882;BME280;7533;51.278;12.588;2023-02-02T15:39:32;100595.94;;;21.00;59.27
14882;BME280;7533;51.278;12.588;2023-02-02T15:44:38;100609.44;;;20.99;59.44
14882;BME280;7533;51.278;12.588;2023-02-02T15:49:41;100616.88;;;20.95;59.82
14882;BME280;7533;51.278;12.588;2023-02-02T15:54:52;100643.94;;;20.92;59.87
14882;BME280;7533;51.278;12.588;2023-02-02T15:59:56;100645.78;;;20.92;59.73
14882;BME280;7533;51.278;12.588;2023-02-02T16:04:59;100659.34;;;20.90;59.76
14882;BME280;7533;51.278;12.588;2023-02-02T16:10:05;100672.03;;;20.88;59.90
14882;BME280;7533;51.278;12.588;2023-02-02T16:15:15;100682.41;;;20.94;59.73
14882;BME280;7533;51.278;12.588;2023-02-02T16:20:20;100702.56;;;20.87;59.95
14882;BME280;7533;51.278;12.588;2023-02-02T16:25:25;100717.84;;;20.86;59.97
14882;BME280;7533;51.278;12.588;2023-02-02T16:30:31;100718.44;;;20.92;59.89
14882;BME280;7533;51.278;12.588;2023-02-02T16:35:37;100722.56;;;20.97;59.90
14882;BME280;7533;51.278;12.588;2023-02-02T16:40:43;100731.34;;;21.01;59.73
14882;BME280;7533;51.278;12.588;2023-02-02T16:45:48;100747.59;;;20.99;59.96
14882;BME280;7533;51.278;12.588;2023-02-02T16:51:05;100747.50;;;21.01;60.06
14882;BME280;7533;51.278;12.588;2023-02-02T16:56:21;100756.44;;;21.01;59.88
14882;BME280;7533;51.278;12.588;2023-02-02T17:01:34;100764.50;;;21.01;60.29
14882;BME280;7533;51.278;12.588;2023-02-02T17:06:38;100772.38;;;21.04;60.49
14882;BME280;7533;51.278;12.588;2023-02-02T17:12:00;100791.41;;;21.01;60.61
14882;BME280;7533;51.278;12.588;2023-02-02T17:17:04;100801.25;;;20.86;60.81
14882;BME280;7533;51.278;12.588;2023-02-02T17:22:09;100802.75;;;20.76;61.37
14882;BME280;7533;51.278;12.588;2023-02-02T17:27:16;100817.84;;;20.79;61.19
14882;BME280;7533;51.278;12.588;2023-02-02T17:32:19;100805.72;;;20.72;61.19
14882;BME280;7533;51.278;12.588;2023-02-02T17:37:24;100820.28;;;20.83;61.07
14882;BME280;7533;51.278;12.588;2023-02-02T17:42:28;100837.03;;;20.89;60.77
14882;BME280;7533;51.278;12.588;2023-02-02T17:47:32;100831.31;;;21.09;60.06
14882;BME280;7533;51.278;12.588;2023-02-02T17:52:37;100843.28;;;21.35;59.12
14882;BME280;7533;51.278;12.588;2023-02-02T17:57:41;100843.59;;;21.45;58.44
14882;BME280;7533;51.278;12.588;2023-02-02T18:02:49;100841.50;;;21.50;57.73
14882;BME280;7533;51.278;12.588;2023-02-02T18:07:56;100850.13;;;21.55;57.27
14882;BME280;7533;51.278;12.588;2023-02-02T18:13:00;100849.09;;;21.57;57.11
14882;BME280;7533;51.278;12.588;2023-02-02T18:18:03;100852.56;;;21.59;56.83
14882;BME280;7533;51.278;12.588;2023-02-02T18:23:06;100848.91;;;21.60;56.46
14882;BME280;7533;51.278;12.588;2023-02-02T18:28:10;100839.88;;;21.61;56.33
14882;BME280;7533;51.278;12.588;2023-02-02T18:33:17;100836.13;;;21.64;55.92
14882;BME280;7533;51.278;12.588;2023-02-02T18:38:20;100842.38;;;21.64;55.85
14882;BME280;7533;51.278;12.588;2023-02-02T18:43:25;100848.53;;;21.67;55.70
14882;BME280;7533;51.278;12.588;2023-02-02T18:48:28;100861.91;;;21.68;55.56
14882;BME280;7533;51.278;12.588;2023-02-02T18:53:31;100853.72;;;21.70;55.55
14882;BME280;7533;51.278;12.588;2023-02-02T18:58:35;100855.19;;;21.75;55.21
14882;BME280;7533;51.278;12.588;2023-02-02T19:03:38;100847.00;;;21.77;55.01
14882;BME280;7533;51.278;12.588;2023-02-02T19:08:41;100849.50;;;21.80;55.00
14882;BME280;7533;51.278;12.588;2023-02-02T19:13:46;100845.00;;;21.80;54.77
14882;BME280;7533;51.278;12.588;2023-02-02T19:18:49;100844.88;;;21.82;54.83
14882;BME280;7533;51.278;12.588;2023-02-02T19:23:52;100851.06;;;21.84;54.49
14882;BME280;7533;51.278;12.588;2023-02-02T19:29:00;100858.19;;;21.85;54.61
14882;BME280;7533;51.278;12.588;2023-02-02T19:34:09;100855.50;;;21.85;54.44
14882;BME280;7533;51.278;12.588;2023-02-02T19:39:16;100850.84;;;21.87;54.11
14882;BME280;7533;51.278;12.588;2023-02-02T19:44:21;100849.03;;;21.87;54.19
14882;BME280;7533;51.278;12.588;2023-02-02T19:49:29;100837.97;;;21.92;54.14
14882;BME280;7533;51.278;12.588;2023-02-02T19:54:34;100841.63;;;21.91;53.92
14882;BME280;7533;51.278;12.588;2023-02-02T19:59:40;100849.50;;;21.94;53.72
14882;BME280;7533;51.278;12.588;2023-02-02T20:04:43;100858.28;;;21.98;53.80
14882;BME280;7533;51.278;12.588;2023-02-02T20:09:46;100867.06;;;22.01;53.70
14882;BME280;7533;51.278;12.588;2023-02-02T20:14:52;100858.09;;;22.01;53.71
14882;BME280;7533;51.278;12.588;2023-02-02T20:19:55;100867.72;;;22.05;53.35
14882;BME280;7533;51.278;12.588;2023-02-02T20:25:02;100885.91;;;22.01;53.28
14882;BME280;7533;51.278;12.588;2023-02-02T20:30:18;100886.69;;;22.03;53.36
14882;BME280;7533;51.278;12.588;2023-02-02T20:35:28;100898.34;;;22.04;53.21
14882;BME280;7533;51.278;12.588;2023-02-02T20:40:34;100894.50;;;22.08;53.09
14882;BME280;7533;51.278;12.588;2023-02-02T20:45:38;100883.03;;;22.04;52.88
14882;BME280;7533;51.278;12.588;2023-02-02T20:50:41;100884.19;;;22.00;53.14
14882;BME280;7533;51.278;12.588;2023-02-02T20:55:47;100878.22;;;22.09;53.04
14882;BME280;7533;51.278;12.588;2023-02-02T21:00:51;100871.03;;;22.10;52.93
14882;BME280;7533;51.278;12.588;2023-02-02T21:05:55;100870.06;;;22.11;52.83
14882;BME280;7533;51.278;12.588;2023-02-02T21:10:58;100869.19;;;22.10;52.84
14882;BME280;7533;51.278;12.588;2023-02-02T21:16:02;100865.63;;;22.10;52.97
14882;BME280;7533;51.278;12.588;2023-02-02T21:21:05;100855.72;;;22.10;52.99
14882;BME280;7533;51.278;12.588;2023-02-02T21:26:08;100853.69;;;22.14;52.72
14882;BME280;7533;51.278;12.588;2023-02-02T21:31:14;100857.25;;;22.14;52.79
14882;BME280;7533;51.278;12.588;2023-02-02T21:36:27;100862.47;;;22.17;52.89
14882;BME280;7533;51.278;12.588;2023-02-02T21:41:31;100863.50;;;22.15;52.76
14882;BME280;7533;51.278;12.588;2023-02-02T21:46:37;100854.38;;;22.17;52.70
14882;BME280;7533;51.278;12.588;2023-02-02T21:51:41;100863.41;;;22.16;53.21
14882;BME280;7533;51.278;12.588;2023-02-02T21:56:44;100859.56;;;22.21;53.32
14882;BME280;7533;51.278;12.588;2023-02-02T22:01:49;100848.50;;;22.25;53.27
14882;BME280;7533;51.278;12.588;2023-02-02T22:06:57;100846.88;;;22.23;53.29
14882;BME280;7533;51.278;12.588;2023-02-02T22:12:01;100840.03;;;22.17;53.72
14882;BME280;7533;51.278;12.588;2023-02-02T22:17:20;100841.94;;;22.15;53.56
14882;BME280;7533;51.278;12.588;2023-02-02T22:27:41;100824.41;;;22.08;53.97
14882;BME280;7533;51.278;12.588;2023-02-02T22:32:46;100828.81;;;22.09;54.16
14882;BME280;7533;51.278;12.588;2023-02-02T22:37:49;100820.84;;;22.07;54.15
14882;BME280;7533;51.278;12.588;2023-02-02T22:42:54;100807.47;;;22.06;54.27
14882;BME280;7533;51.278;12.588;2023-02-02T22:47:58;100816.41;;;22.06;54.23
14882;BME280;7533;51.278;12.588;2023-02-02T22:53:02;100803.88;;;22.05;54.40
14882;BME280;7533;51.278;12.588;2023-02-02T22:58:05;100804.09;;;22.02;54.38
14882;BME280;7533;51.278;12.588;2023-02-02T23:03:09;100810.53;;;22.00;54.71
14882;BME280;7533;51.278;12.588;2023-02-02T23:08:12;100809.59;;;22.01;54.67
14882;BME280;7533;51.278;12.588;2023-02-02T23:13:15;100816.13;;;21.97;54.87
14882;BME280;7533;51.278;12.588;2023-02-02T23:18:19;100810.84;;;21.95;54.95
14882;BME280;7533;51.278;12.588;2023-02-02T23:23:22;100813.53;;;21.95;55.15
14882;BME280;7533;51.278;12.588;2023-02-02T23:28:25;100807.34;;;21.93;55.29
14882;BME280;7533;51.278;12.588;2023-02-02T23:33:29;100817.09;;;21.96;55.15
14882;BME280;7533;51.278;12.588;2023-02-02T23:38:32;100812.66;;;21.95;55.01
14882;BME280;7533;51.278;12.588;2023-02-02T23:43:35;100794.66;;;21.95;55.27
14882;BME280;7533;51.278;12.588;2023-02-02T23:48:39;100794.66;;;21.95;55.24
14882;BME280;7533;51.278;12.588;2023-02-02T23:53:42;100779.75;;;21.89;55.44
14882;BME280;7533;51.278;12.588;2023-02-02T23:58:45;100786.97;;;21.89;55.44
